sensor_id;sensor_type;location;lat;lon;timestamp;P1;durP1;ratioP1;P2;durP2;ratioP2
21814;SDS011;11069;48.988;8.450;2023-07-13T00:01:14;4.47;;;1.45;;
21814;SDS011;11069;48.988;8.450;2023-07-13T00:03:41;2.13;;;1.45;;
21814;SDS011;11069;48.988;8.450;2023-07-13T00:06:07;3.58;;;1.67;;
21814;SDS011;11069;48.988;8.450;2023-07-13T00:08:33;1.67;;;1.15;;
21814;SDS011;11069;48.988;8.450;2023-07-13T00:11:00;2.13;;;1.35;;
21814;SDS011;11069;48.988;8.450;2023-07-13T00:13:29;4.50;;;1.25;;
21814;SDS011;11069;48.988;8.450;2023-07-13T00:15:56;1.58;;;1.33;;
21814;SDS011;11069;48.988;8.450;2023-07-13T00:18:23;1.70;;;1.35;;
21814;SDS011;11069;48.988;8.450;2023-07-13T00:20:49;1.27;;;1.13;;
21814;SDS011;11069;48.988;8.450;2023-07-13T00:23:15;2.10;;;1.45;;
21814;SDS011;11069;48.988;8.450;2023-07-13T00:25:42;2.67;;;1.20;;
21814;SDS011;11069;48.988;8.450;2023-07-13T00:28:08;4.10;;;1.63;;
21814;SDS011;11069;48.988;8.450;2023-07-13T00:30:33;3.35;;;1.38;;
21814;SDS011;11069;48.988;8.450;2023-07-13T00:32:59;1.40;;;1.30;;
21814;SDS011;11069;48.988;8.450;2023-07-13T00:35:26;1.40;;;1.23;;
21814;SDS011;11069;48.988;8.450;2023-07-13T00:37:58;2.78;;;1.50;;
21814;SDS011;11069;48.988;8.450;2023-07-13T00:40:23;1.48;;;1.30;;
21814;SDS011;11069;48.988;8.450;2023-07-13T00:42:51;1.73;;;1.25;;
21814;SDS011;11069;48.988;8.450;2023-07-13T00:47:43;1.67;;;1.33;;
21814;SDS011;11069;48.988;8.450;2023-07-13T00:50:10;1.52;;;1.30;;
21814;SDS011;11069;48.988;8.450;2023-07-13T00:55:06;3.28;;;1.25;;
21814;SDS011;11069;48.988;8.450;2023-07-13T00:57:34;1.58;;;1.48;;
21814;SDS011;11069;48.988;8.450;2023-07-13T01:00:00;1.50;;;1.33;;
21814;SDS011;11069;48.988;8.450;2023-07-13T01:02:33;4.10;;;1.23;;
21814;SDS011;11069;48.988;8.450;2023-07-13T01:05:08;1.60;;;1.40;;
21814;SDS011;11069;48.988;8.450;2023-07-13T01:07:39;2.45;;;1.48;;
21814;SDS011;11069;48.988;8.450;2023-07-13T01:10:06;2.13;;;1.65;;
21814;SDS011;11069;48.988;8.450;2023-07-13T01:12:32;1.70;;;1.27;;
21814;SDS011;11069;48.988;8.450;2023-07-13T01:18:00;3.78;;;1.60;;
21814;SDS011;11069;48.988;8.450;2023-07-13T01:20:26;2.20;;;1.45;;
21814;SDS011;11069;48.988;8.450;2023-07-13T01:22:52;2.63;;;1.30;;
21814;SDS011;11069;48.988;8.450;2023-07-13T01:25:18;3.60;;;1.38;;
21814;SDS011;11069;48.988;8.450;2023-07-13T01:27:44;1.70;;;1.35;;
21814;SDS011;11069;48.988;8.450;2023-07-13T01:30:10;1.38;;;1.08;;
21814;SDS011;11069;48.988;8.450;2023-07-13T01:32:36;2.50;;;1.42;;
21814;SDS011;11069;48.988;8.450;2023-07-13T01:35:07;1.85;;;1.40;;
21814;SDS011;11069;48.988;8.450;2023-07-13T01:37:32;1.73;;;1.35;;
21814;SDS011;11069;48.988;8.450;2023-07-13T01:40:01;2.22;;;1.30;;
21814;SDS011;11069;48.988;8.450;2023-07-13T01:42:28;1.48;;;1.35;;
21814;SDS011;11069;48.988;8.450;2023-07-13T01:44:53;1.85;;;1.52;;
21814;SDS011;11069;48.988;8.450;2023-07-13T01:47:22;1.20;;;1.10;;
21814;SDS011;11069;48.988;8.450;2023-07-13T01:49:48;2.88;;;1.17;;
21814;SDS011;11069;48.988;8.450;2023-07-13T01:52:15;1.50;;;1.40;;
21814;SDS011;11069;48.988;8.450;2023-07-13T01:54:41;1.95;;;1.42;;
21814;SDS011;11069;48.988;8.450;2023-07-13T01:57:06;4.40;;;1.70;;
21814;SDS011;11069;48.988;8.450;2023-07-13T01:59:32;2.38;;;1.25;;
21814;SDS011;11069;48.988;8.450;2023-07-13T02:01:58;3.20;;;1.25;;
21814;SDS011;11069;48.988;8.450;2023-07-13T02:04:24;1.75;;;1.27;;
21814;SDS011;11069;48.988;8.450;2023-07-13T02:06:49;3.08;;;1.40;;
21814;SDS011;11069;48.988;8.450;2023-07-13T02:09:17;1.67;;;1.42;;
21814;SDS011;11069;48.988;8.450;2023-07-13T02:11:43;1.90;;;1.55;;
21814;SDS011;11069;48.988;8.450;2023-07-13T02:14:08;1.70;;;1.60;;
21814;SDS011;11069;48.988;8.450;2023-07-13T02:16:34;3.60;;;1.80;;
21814;SDS011;11069;48.988;8.450;2023-07-13T02:19:03;2.60;;;1.65;;
21814;SDS011;11069;48.988;8.450;2023-07-13T02:21:28;1.95;;;1.52;;
21814;SDS011;11069;48.988;8.450;2023-07-13T02:23:54;1.88;;;1.40;;
21814;SDS011;11069;48.988;8.450;2023-07-13T02:26:20;4.05;;;1.55;;
21814;SDS011;11069;48.988;8.450;2023-07-13T02:28:45;1.80;;;1.50;;
21814;SDS011;11069;48.988;8.450;2023-07-13T02:31:12;2.47;;;1.83;;
21814;SDS011;11069;48.988;8.450;2023-07-13T02:33:39;1.80;;;1.52;;
21814;SDS011;11069;48.988;8.450;2023-07-13T02:36:05;2.58;;;1.60;;
21814;SDS011;11069;48.988;8.450;2023-07-13T02:38:32;3.40;;;1.77;;
21814;SDS011;11069;48.988;8.450;2023-07-13T02:41:04;10.30;;;1.80;;
21814;SDS011;11069;48.988;8.450;2023-07-13T02:43:33;2.97;;;1.70;;
21814;SDS011;11069;48.988;8.450;2023-07-13T02:45:59;3.88;;;1.40;;
21814;SDS011;11069;48.988;8.450;2023-07-13T02:48:35;1.95;;;1.55;;
21814;SDS011;11069;48.988;8.450;2023-07-13T02:51:02;2.45;;;1.80;;
21814;SDS011;11069;48.988;8.450;2023-07-13T02:53:28;2.47;;;1.73;;
21814;SDS011;11069;48.988;8.450;2023-07-13T02:55:53;2.05;;;1.67;;
21814;SDS011;11069;48.988;8.450;2023-07-13T02:58:19;1.88;;;1.65;;
21814;SDS011;11069;48.988;8.450;2023-07-13T03:00:47;2.13;;;1.73;;
21814;SDS011;11069;48.988;8.450;2023-07-13T03:03:13;2.47;;;1.92;;
21814;SDS011;11069;48.988;8.450;2023-07-13T03:05:41;2.88;;;1.92;;
21814;SDS011;11069;48.988;8.450;2023-07-13T03:08:07;1.88;;;1.58;;
21814;SDS011;11069;48.988;8.450;2023-07-13T03:10:37;3.60;;;2.15;;
21814;SDS011;11069;48.988;8.450;2023-07-13T03:13:04;2.80;;;1.67;;
21814;SDS011;11069;48.988;8.450;2023-07-13T03:15:30;2.10;;;1.60;;
21814;SDS011;11069;48.988;8.450;2023-07-13T03:17:56;2.63;;;2.05;;
21814;SDS011;11069;48.988;8.450;2023-07-13T03:20:24;3.38;;;2.30;;
21814;SDS011;11069;48.988;8.450;2023-07-13T03:22:50;2.13;;;1.92;;
21814;SDS011;11069;48.988;8.450;2023-07-13T03:25:15;4.28;;;2.63;;
21814;SDS011;11069;48.988;8.450;2023-07-13T03:27:41;3.40;;;1.98;;
21814;SDS011;11069;48.988;8.450;2023-07-13T03:30:07;2.45;;;2.25;;
21814;SDS011;11069;48.988;8.450;2023-07-13T03:32:33;3.90;;;2.15;;
21814;SDS011;11069;48.988;8.450;2023-07-13T03:34:58;4.43;;;1.88;;
21814;SDS011;11069;48.988;8.450;2023-07-13T03:37:24;2.25;;;1.80;;
21814;SDS011;11069;48.988;8.450;2023-07-13T03:39:50;3.08;;;1.90;;
21814;SDS011;11069;48.988;8.450;2023-07-13T03:42:16;2.53;;;2.13;;
21814;SDS011;11069;48.988;8.450;2023-07-13T03:44:41;2.65;;;2.10;;
21814;SDS011;11069;48.988;8.450;2023-07-13T03:47:10;2.00;;;1.80;;
21814;SDS011;11069;48.988;8.450;2023-07-13T03:49:36;3.55;;;2.20;;
21814;SDS011;11069;48.988;8.450;2023-07-13T03:52:02;2.22;;;2.00;;
21814;SDS011;11069;48.988;8.450;2023-07-13T03:54:28;3.80;;;2.15;;
21814;SDS011;11069;48.988;8.450;2023-07-13T03:56:53;1.95;;;1.75;;
21814;SDS011;11069;48.988;8.450;2023-07-13T03:59:19;3.17;;;2.10;;
21814;SDS011;11069;48.988;8.450;2023-07-13T04:01:44;2.42;;;1.90;;
21814;SDS011;11069;48.988;8.450;2023-07-13T04:04:10;3.00;;;2.28;;
21814;SDS011;11069;48.988;8.450;2023-07-13T04:06:35;3.50;;;2.75;;
21814;SDS011;11069;48.988;8.450;2023-07-13T04:09:02;2.65;;;2.17;;
21814;SDS011;11069;48.988;8.450;2023-07-13T04:11:31;3.50;;;2.35;;
21814;SDS011;11069;48.988;8.450;2023-07-13T04:13:58;4.65;;;3.10;;
21814;SDS011;11069;48.988;8.450;2023-07-13T04:16:24;4.13;;;3.33;;
21814;SDS011;11069;48.988;8.450;2023-07-13T04:18:50;3.10;;;2.25;;
21814;SDS011;11069;48.988;8.450;2023-07-13T04:21:20;2.40;;;2.08;;
21814;SDS011;11069;48.988;8.450;2023-07-13T04:23:46;2.72;;;2.30;;
21814;SDS011;11069;48.988;8.450;2023-07-13T04:26:12;3.28;;;2.20;;
21814;SDS011;11069;48.988;8.450;2023-07-13T04:28:38;4.30;;;2.33;;
21814;SDS011;11069;48.988;8.450;2023-07-13T04:31:06;5.55;;;2.42;;
21814;SDS011;11069;48.988;8.450;2023-07-13T04:33:32;2.90;;;2.40;;
21814;SDS011;11069;48.988;8.450;2023-07-13T04:35:57;5.32;;;2.47;;
21814;SDS011;11069;48.988;8.450;2023-07-13T04:38:24;4.60;;;2.30;;
21814;SDS011;11069;48.988;8.450;2023-07-13T04:40:55;4.22;;;2.50;;
21814;SDS011;11069;48.988;8.450;2023-07-13T04:43:26;3.63;;;2.15;;
21814;SDS011;11069;48.988;8.450;2023-07-13T04:45:52;2.55;;;2.30;;
21814;SDS011;11069;48.988;8.450;2023-07-13T04:48:18;3.05;;;2.22;;
21814;SDS011;11069;48.988;8.450;2023-07-13T04:50:45;3.15;;;2.50;;
21814;SDS011;11069;48.988;8.450;2023-07-13T04:53:11;4.72;;;2.78;;
21814;SDS011;11069;48.988;8.450;2023-07-13T04:55:37;4.10;;;2.05;;
21814;SDS011;11069;48.988;8.450;2023-07-13T04:58:03;3.88;;;2.40;;
21814;SDS011;11069;48.988;8.450;2023-07-13T05:00:29;3.30;;;2.55;;
21814;SDS011;11069;48.988;8.450;2023-07-13T05:02:56;2.40;;;2.20;;
21814;SDS011;11069;48.988;8.450;2023-07-13T05:05:25;3.13;;;2.13;;
21814;SDS011;11069;48.988;8.450;2023-07-13T05:07:52;5.60;;;2.42;;
21814;SDS011;11069;48.988;8.450;2023-07-13T05:10:18;3.63;;;1.92;;
21814;SDS011;11069;48.988;8.450;2023-07-13T05:12:44;3.85;;;2.28;;
21814;SDS011;11069;48.988;8.450;2023-07-13T05:15:10;4.05;;;2.22;;
21814;SDS011;11069;48.988;8.450;2023-07-13T05:17:36;1.80;;;1.70;;
21814;SDS011;11069;48.988;8.450;2023-07-13T05:20:03;2.03;;;1.63;;
21814;SDS011;11069;48.988;8.450;2023-07-13T05:22:30;2.88;;;1.85;;
21814;SDS011;11069;48.988;8.450;2023-07-13T05:24:56;2.83;;;2.00;;
21814;SDS011;11069;48.988;8.450;2023-07-13T05:27:21;3.80;;;2.40;;
21814;SDS011;11069;48.988;8.450;2023-07-13T05:29:48;3.40;;;2.17;;
21814;SDS011;11069;48.988;8.450;2023-07-13T05:32:14;3.28;;;2.20;;
21814;SDS011;11069;48.988;8.450;2023-07-13T05:34:40;2.90;;;2.13;;
21814;SDS011;11069;48.988;8.450;2023-07-13T05:37:06;3.40;;;2.20;;
21814;SDS011;11069;48.988;8.450;2023-07-13T05:39:32;3.08;;;2.17;;
21814;SDS011;11069;48.988;8.450;2023-07-13T05:41:58;2.88;;;2.25;;
21814;SDS011;11069;48.988;8.450;2023-07-13T05:44:23;4.05;;;2.35;;
21814;SDS011;11069;48.988;8.450;2023-07-13T05:46:49;2.72;;;1.98;;
21814;SDS011;11069;48.988;8.450;2023-07-13T05:49:15;7.90;;;2.88;;
21814;SDS011;11069;48.988;8.450;2023-07-13T05:51:40;2.13;;;1.85;;
21814;SDS011;11069;48.988;8.450;2023-07-13T05:54:06;2.67;;;2.15;;
21814;SDS011;11069;48.988;8.450;2023-07-13T05:56:31;2.35;;;1.67;;
21814;SDS011;11069;48.988;8.450;2023-07-13T05:58:57;3.13;;;1.95;;
21814;SDS011;11069;48.988;8.450;2023-07-13T06:01:22;3.03;;;1.70;;
21814;SDS011;11069;48.988;8.450;2023-07-13T06:03:48;2.22;;;1.90;;
21814;SDS011;11069;48.988;8.450;2023-07-13T06:06:14;4.78;;;2.00;;
21814;SDS011;11069;48.988;8.450;2023-07-13T06:08:40;1.92;;;1.60;;
21814;SDS011;11069;48.988;8.450;2023-07-13T06:11:08;4.03;;;1.48;;
21814;SDS011;11069;48.988;8.450;2023-07-13T06:13:38;3.00;;;1.52;;
21814;SDS011;11069;48.988;8.450;2023-07-13T06:16:04;2.53;;;1.83;;
21814;SDS011;11069;48.988;8.450;2023-07-13T06:18:31;4.68;;;1.70;;
21814;SDS011;11069;48.988;8.450;2023-07-13T06:20:59;2.55;;;1.48;;
21814;SDS011;11069;48.988;8.450;2023-07-13T06:23:25;3.55;;;1.60;;
21814;SDS011;11069;48.988;8.450;2023-07-13T06:25:51;3.65;;;1.20;;
21814;SDS011;11069;48.988;8.450;2023-07-13T06:28:16;2.85;;;1.60;;
21814;SDS011;11069;48.988;8.450;2023-07-13T06:30:42;2.28;;;1.80;;
21814;SDS011;11069;48.988;8.450;2023-07-13T06:33:09;2.42;;;1.52;;
21814;SDS011;11069;48.988;8.450;2023-07-13T06:35:34;3.20;;;1.35;;
21814;SDS011;11069;48.988;8.450;2023-07-13T06:38:00;3.30;;;1.60;;
21814;SDS011;11069;48.988;8.450;2023-07-13T06:40:25;6.80;;;1.67;;
21814;SDS011;11069;48.988;8.450;2023-07-13T06:42:53;1.25;;;1.08;;
21814;SDS011;11069;48.988;8.450;2023-07-13T06:45:19;2.42;;;1.35;;
21814;SDS011;11069;48.988;8.450;2023-07-13T06:47:44;4.20;;;1.55;;
21814;SDS011;11069;48.988;8.450;2023-07-13T06:50:10;2.22;;;1.40;;
21814;SDS011;11069;48.988;8.450;2023-07-13T06:52:35;2.80;;;1.27;;
21814;SDS011;11069;48.988;8.450;2023-07-13T06:55:01;3.10;;;1.27;;
21814;SDS011;11069;48.988;8.450;2023-07-13T06:57:27;4.38;;;1.50;;
21814;SDS011;11069;48.988;8.450;2023-07-13T06:59:52;2.50;;;1.33;;
21814;SDS011;11069;48.988;8.450;2023-07-13T07:02:18;2.83;;;1.30;;
21814;SDS011;11069;48.988;8.450;2023-07-13T07:04:43;3.58;;;1.58;;
21814;SDS011;11069;48.988;8.450;2023-07-13T07:07:12;2.17;;;1.48;;
21814;SDS011;11069;48.988;8.450;2023-07-13T07:09:38;2.97;;;1.38;;
21814;SDS011;11069;48.988;8.450;2023-07-13T07:12:03;1.88;;;1.20;;
21814;SDS011;11069;48.988;8.450;2023-07-13T07:14:29;6.22;;;1.33;;
21814;SDS011;11069;48.988;8.450;2023-07-13T07:16:56;3.65;;;1.40;;
21814;SDS011;11069;48.988;8.450;2023-07-13T07:19:23;1.65;;;1.02;;
21814;SDS011;11069;48.988;8.450;2023-07-13T07:21:49;4.88;;;1.80;;
21814;SDS011;11069;48.988;8.450;2023-07-13T07:24:14;2.00;;;1.25;;
21814;SDS011;11069;48.988;8.450;2023-07-13T07:26:40;1.58;;;1.30;;
21814;SDS011;11069;48.988;8.450;2023-07-13T07:29:06;3.35;;;1.30;;
21814;SDS011;11069;48.988;8.450;2023-07-13T07:31:32;2.80;;;1.40;;
21814;SDS011;11069;48.988;8.450;2023-07-13T07:33:57;2.00;;;1.25;;
21814;SDS011;11069;48.988;8.450;2023-07-13T07:36:23;3.03;;;1.45;;
21814;SDS011;11069;48.988;8.450;2023-07-13T07:38:48;3.50;;;1.30;;
21814;SDS011;11069;48.988;8.450;2023-07-13T07:41:14;1.35;;;1.20;;
21814;SDS011;11069;48.988;8.450;2023-07-13T07:43:40;1.70;;;1.40;;
21814;SDS011;11069;48.988;8.450;2023-07-13T07:46:05;2.22;;;1.30;;
21814;SDS011;11069;48.988;8.450;2023-07-13T07:48:31;1.77;;;1.00;;
21814;SDS011;11069;48.988;8.450;2023-07-13T07:50:57;1.73;;;1.27;;
21814;SDS011;11069;48.988;8.450;2023-07-13T07:53:22;3.80;;;1.25;;
21814;SDS011;11069;48.988;8.450;2023-07-13T07:55:48;4.10;;;0.98;;
21814;SDS011;11069;48.988;8.450;2023-07-13T07:58:14;2.05;;;1.17;;
21814;SDS011;11069;48.988;8.450;2023-07-13T08:00:40;2.22;;;1.20;;
21814;SDS011;11069;48.988;8.450;2023-07-13T08:03:05;2.35;;;1.30;;
21814;SDS011;11069;48.988;8.450;2023-07-13T08:05:31;2.15;;;1.30;;
21814;SDS011;11069;48.988;8.450;2023-07-13T08:07:59;2.50;;;1.10;;
21814;SDS011;11069;48.988;8.450;2023-07-13T08:10:25;1.73;;;1.27;;
21814;SDS011;11069;48.988;8.450;2023-07-13T08:12:51;2.80;;;1.40;;
21814;SDS011;11069;48.988;8.450;2023-07-13T08:15:16;2.50;;;1.17;;
21814;SDS011;11069;48.988;8.450;2023-07-13T08:17:42;1.67;;;1.15;;
21814;SDS011;11069;48.988;8.450;2023-07-13T08:20:08;3.92;;;1.08;;
21814;SDS011;11069;48.988;8.450;2023-07-13T08:22:34;2.05;;;1.23;;
21814;SDS011;11069;48.988;8.450;2023-07-13T08:25:00;2.05;;;1.08;;
21814;SDS011;11069;48.988;8.450;2023-07-13T08:27:26;2.45;;;1.15;;
21814;SDS011;11069;48.988;8.450;2023-07-13T08:29:53;1.35;;;0.93;;
21814;SDS011;11069;48.988;8.450;2023-07-13T08:32:20;1.70;;;1.08;;
21814;SDS011;11069;48.988;8.450;2023-07-13T08:34:47;2.90;;;1.00;;
21814;SDS011;11069;48.988;8.450;2023-07-13T08:37:13;1.67;;;1.00;;
21814;SDS011;11069;48.988;8.450;2023-07-13T08:39:38;2.05;;;1.17;;
21814;SDS011;11069;48.988;8.450;2023-07-13T08:42:05;1.40;;;1.08;;
21814;SDS011;11069;48.988;8.450;2023-07-13T08:44:40;1.00;;;0.73;;
21814;SDS011;11069;48.988;8.450;2023-07-13T08:47:28;1.00;;;0.70;;
21814;SDS011;11069;48.988;8.450;2023-07-13T08:49:56;1.40;;;0.80;;
21814;SDS011;11069;48.988;8.450;2023-07-13T08:52:41;1.33;;;0.90;;
21814;SDS011;11069;48.988;8.450;2023-07-13T08:55:31;2.95;;;1.10;;
21814;SDS011;11069;48.988;8.450;2023-07-13T08:58:16;1.63;;;1.10;;
21814;SDS011;11069;48.988;8.450;2023-07-13T09:00:56;1.77;;;1.10;;
21814;SDS011;11069;48.988;8.450;2023-07-13T09:03:42;1.90;;;0.98;;
21814;SDS011;11069;48.988;8.450;2023-07-13T09:06:16;1.77;;;1.08;;
21814;SDS011;11069;48.988;8.450;2023-07-13T09:08:55;1.80;;;0.90;;
21814;SDS011;11069;48.988;8.450;2023-07-13T09:11:49;1.10;;;1.00;;
21814;SDS011;11069;48.988;8.450;2023-07-13T09:17:08;2.00;;;0.80;;
21814;SDS011;11069;48.988;8.450;2023-07-13T09:19:43;2.05;;;0.90;;
21814;SDS011;11069;48.988;8.450;2023-07-13T09:22:14;1.92;;;0.93;;
21814;SDS011;11069;48.988;8.450;2023-07-13T09:27:27;1.17;;;0.80;;
21814;SDS011;11069;48.988;8.450;2023-07-13T09:32:34;2.33;;;0.98;;
21814;SDS011;11069;48.988;8.450;2023-07-13T09:35:01;2.80;;;0.93;;
21814;SDS011;11069;48.988;8.450;2023-07-13T09:37:33;1.58;;;0.80;;
21814;SDS011;11069;48.988;8.450;2023-07-13T09:40:00;1.67;;;1.00;;
21814;SDS011;11069;48.988;8.450;2023-07-13T09:42:29;2.58;;;0.82;;
21814;SDS011;11069;48.988;8.450;2023-07-13T09:44:58;1.60;;;0.80;;
21814;SDS011;11069;48.988;8.450;2023-07-13T09:47:31;2.67;;;1.30;;
21814;SDS011;11069;48.988;8.450;2023-07-13T09:50:03;1.92;;;1.05;;
21814;SDS011;11069;48.988;8.450;2023-07-13T09:52:44;2.45;;;0.88;;
21814;SDS011;11069;48.988;8.450;2023-07-13T09:55:32;1.98;;;1.10;;
21814;SDS011;11069;48.988;8.450;2023-07-13T09:58:20;1.40;;;0.90;;
21814;SDS011;11069;48.988;8.450;2023-07-13T10:00:56;2.08;;;0.82;;
21814;SDS011;11069;48.988;8.450;2023-07-13T10:03:34;2.50;;;0.93;;
21814;SDS011;11069;48.988;8.450;2023-07-13T10:06:25;1.98;;;1.15;;
21814;SDS011;11069;48.988;8.450;2023-07-13T10:08:55;0.80;;;0.80;;
21814;SDS011;11069;48.988;8.450;2023-07-13T10:11:22;1.65;;;1.00;;
21814;SDS011;11069;48.988;8.450;2023-07-13T10:13:52;3.85;;;1.00;;
21814;SDS011;11069;48.988;8.450;2023-07-13T10:16:28;1.10;;;0.70;;
21814;SDS011;11069;48.988;8.450;2023-07-13T10:18:58;2.47;;;0.73;;
21814;SDS011;11069;48.988;8.450;2023-07-13T10:21:55;2.72;;;1.23;;
21814;SDS011;11069;48.988;8.450;2023-07-13T10:24:29;2.05;;;1.08;;
21814;SDS011;11069;48.988;8.450;2023-07-13T10:27:05;1.63;;;0.90;;
21814;SDS011;11069;48.988;8.450;2023-07-13T10:29:55;4.05;;;0.82;;
21814;SDS011;11069;48.988;8.450;2023-07-13T10:32:29;3.47;;;1.08;;
21814;SDS011;11069;48.988;8.450;2023-07-13T10:34:54;3.55;;;1.02;;
21814;SDS011;11069;48.988;8.450;2023-07-13T10:37:23;2.05;;;1.00;;
21814;SDS011;11069;48.988;8.450;2023-07-13T10:39:52;2.30;;;1.00;;
21814;SDS011;11069;48.988;8.450;2023-07-13T10:43:04;1.80;;;1.15;;
21814;SDS011;11069;48.988;8.450;2023-07-13T10:45:15;1.48;;;1.00;;
21814;SDS011;11069;48.988;8.450;2023-07-13T10:47:44;1.20;;;0.90;;
21814;SDS011;11069;48.988;8.450;2023-07-13T10:50:15;3.70;;;1.10;;
21814;SDS011;11069;48.988;8.450;2023-07-13T10:52:46;2.38;;;1.00;;
21814;SDS011;11069;48.988;8.450;2023-07-13T10:58:22;1.48;;;0.80;;
21814;SDS011;11069;48.988;8.450;2023-07-13T11:01:03;1.13;;;0.90;;
21814;SDS011;11069;48.988;8.450;2023-07-13T11:03:29;1.65;;;1.02;;
21814;SDS011;11069;48.988;8.450;2023-07-13T11:08:56;2.03;;;1.30;;
21814;SDS011;11069;48.988;8.450;2023-07-13T11:55:27;2.15;;;1.13;;
21814;SDS011;11069;48.988;8.450;2023-07-13T11:57:56;2.53;;;1.20;;
21814;SDS011;11069;48.988;8.450;2023-07-13T12:00:26;1.10;;;0.90;;
21814;SDS011;11069;48.988;8.450;2023-07-13T12:02:56;2.78;;;0.93;;
21814;SDS011;11069;48.988;8.450;2023-07-13T12:05:24;2.28;;;1.08;;
21814;SDS011;11069;48.988;8.450;2023-07-13T12:07:50;1.38;;;0.93;;
21814;SDS011;11069;48.988;8.450;2023-07-13T12:12:58;1.70;;;1.05;;
21814;SDS011;11069;48.988;8.450;2023-07-13T12:15:40;3.05;;;1.52;;
21814;SDS011;11069;48.988;8.450;2023-07-13T12:20:47;1.67;;;0.93;;
21814;SDS011;11069;48.988;8.450;2023-07-13T12:23:31;4.22;;;1.40;;
21814;SDS011;11069;48.988;8.450;2023-07-13T12:25:59;3.35;;;1.13;;
21814;SDS011;11069;48.988;8.450;2023-07-13T12:31:57;3.85;;;1.10;;
21814;SDS011;11069;48.988;8.450;2023-07-13T12:36:38;2.15;;;1.00;;
21814;SDS011;11069;48.988;8.450;2023-07-13T12:42:09;1.65;;;1.10;;
21814;SDS011;11069;48.988;8.450;2023-07-13T12:44:54;1.95;;;0.90;;
21814;SDS011;11069;48.988;8.450;2023-07-13T12:47:31;2.53;;;0.90;;
21814;SDS011;11069;48.988;8.450;2023-07-13T12:50:12;1.75;;;1.23;;
21814;SDS011;11069;48.988;8.450;2023-07-13T12:52:44;2.13;;;1.20;;
21814;SDS011;11069;48.988;8.450;2023-07-13T12:55:17;2.95;;;0.95;;
21814;SDS011;11069;48.988;8.450;2023-07-13T12:57:53;2.13;;;1.13;;
21814;SDS011;11069;48.988;8.450;2023-07-13T13:05:18;1.70;;;1.10;;
21814;SDS011;11069;48.988;8.450;2023-07-13T13:07:45;1.63;;;0.98;;
21814;SDS011;11069;48.988;8.450;2023-07-13T13:10:12;3.42;;;1.48;;
21814;SDS011;11069;48.988;8.450;2023-07-13T13:12:38;1.38;;;0.88;;
21814;SDS011;11069;48.988;8.450;2023-07-13T13:15:07;1.20;;;1.00;;
21814;SDS011;11069;48.988;8.450;2023-07-13T13:17:33;2.28;;;0.90;;
21814;SDS011;11069;48.988;8.450;2023-07-13T13:19:59;1.38;;;0.90;;
21814;SDS011;11069;48.988;8.450;2023-07-13T13:22:25;2.88;;;1.10;;
21814;SDS011;11069;48.988;8.450;2023-07-13T13:24:50;4.50;;;1.80;;
21814;SDS011;11069;48.988;8.450;2023-07-13T13:27:17;2.20;;;0.98;;
21814;SDS011;11069;48.988;8.450;2023-07-13T13:29:44;2.25;;;0.98;;
21814;SDS011;11069;48.988;8.450;2023-07-13T13:32:13;1.63;;;0.77;;
21814;SDS011;11069;48.988;8.450;2023-07-13T13:34:39;2.58;;;1.02;;
21814;SDS011;11069;48.988;8.450;2023-07-13T13:39:47;6.63;;;1.52;;
21814;SDS011;11069;48.988;8.450;2023-07-13T13:42:14;2.13;;;0.98;;
21814;SDS011;11069;48.988;8.450;2023-07-13T13:44:39;1.27;;;0.70;;
21814;SDS011;11069;48.988;8.450;2023-07-13T13:47:29;1.60;;;0.85;;
21814;SDS011;11069;48.988;8.450;2023-07-13T13:49:58;2.40;;;1.00;;
21814;SDS011;11069;48.988;8.450;2023-07-13T13:52:24;1.70;;;0.80;;
21814;SDS011;11069;48.988;8.450;2023-07-13T13:54:50;1.65;;;0.85;;
21814;SDS011;11069;48.988;8.450;2023-07-13T13:57:20;5.03;;;1.38;;
21814;SDS011;11069;48.988;8.450;2023-07-13T13:59:50;2.20;;;1.00;;
21814;SDS011;11069;48.988;8.450;2023-07-13T14:04:47;1.38;;;0.77;;
21814;SDS011;11069;48.988;8.450;2023-07-13T14:07:15;3.70;;;1.50;;
21814;SDS011;11069;48.988;8.450;2023-07-13T14:09:41;2.30;;;1.00;;
21814;SDS011;11069;48.988;8.450;2023-07-13T14:12:08;1.98;;;1.35;;
21814;SDS011;11069;48.988;8.450;2023-07-13T14:14:36;1.92;;;1.13;;
21814;SDS011;11069;48.988;8.450;2023-07-13T14:20:01;1.38;;;0.70;;
21814;SDS011;11069;48.988;8.450;2023-07-13T14:22:29;1.52;;;1.10;;
21814;SDS011;11069;48.988;8.450;2023-07-13T14:24:55;1.05;;;0.80;;
21814;SDS011;11069;48.988;8.450;2023-07-13T14:27:22;2.10;;;0.85;;
21814;SDS011;11069;48.988;8.450;2023-07-13T14:29:49;1.15;;;0.80;;
21814;SDS011;11069;48.988;8.450;2023-07-13T14:32:15;1.30;;;0.85;;
21814;SDS011;11069;48.988;8.450;2023-07-13T14:34:40;1.95;;;0.80;;
21814;SDS011;11069;48.988;8.450;2023-07-13T14:37:09;1.30;;;1.00;;
21814;SDS011;11069;48.988;8.450;2023-07-13T14:39:39;2.55;;;0.98;;
21814;SDS011;11069;48.988;8.450;2023-07-13T14:42:08;1.42;;;1.00;;
21814;SDS011;11069;48.988;8.450;2023-07-13T14:44:34;2.30;;;1.17;;
21814;SDS011;11069;48.988;8.450;2023-07-13T14:47:02;3.22;;;1.10;;
21814;SDS011;11069;48.988;8.450;2023-07-13T14:49:31;7.43;;;1.30;;
21814;SDS011;11069;48.988;8.450;2023-07-13T14:52:01;1.73;;;0.90;;
21814;SDS011;11069;48.988;8.450;2023-07-13T14:54:30;1.42;;;0.88;;
21814;SDS011;11069;48.988;8.450;2023-07-13T14:56:56;5.55;;;1.00;;
21814;SDS011;11069;48.988;8.450;2023-07-13T14:59:22;3.60;;;1.05;;
21814;SDS011;11069;48.988;8.450;2023-07-13T15:01:48;1.67;;;1.00;;
21814;SDS011;11069;48.988;8.450;2023-07-13T15:04:14;2.88;;;1.13;;
21814;SDS011;11069;48.988;8.450;2023-07-13T15:06:57;1.63;;;0.93;;
21814;SDS011;11069;48.988;8.450;2023-07-13T15:09:24;2.05;;;1.08;;
21814;SDS011;11069;48.988;8.450;2023-07-13T15:11:52;1.40;;;1.05;;
21814;SDS011;11069;48.988;8.450;2023-07-13T15:14:19;1.98;;;1.00;;
21814;SDS011;11069;48.988;8.450;2023-07-13T15:16:46;2.50;;;1.00;;
21814;SDS011;11069;48.988;8.450;2023-07-13T15:19:13;1.70;;;1.00;;
21814;SDS011;11069;48.988;8.450;2023-07-13T15:21:41;3.10;;;0.85;;
21814;SDS011;11069;48.988;8.450;2023-07-13T15:24:08;1.40;;;0.80;;
21814;SDS011;11069;48.988;8.450;2023-07-13T15:26:35;3.25;;;1.23;;
21814;SDS011;11069;48.988;8.450;2023-07-13T15:29:01;2.50;;;1.02;;
21814;SDS011;11069;48.988;8.450;2023-07-13T15:31:27;0.98;;;0.68;;
21814;SDS011;11069;48.988;8.450;2023-07-13T15:33:55;1.85;;;1.00;;
21814;SDS011;11069;48.988;8.450;2023-07-13T15:36:22;1.65;;;0.85;;
21814;SDS011;11069;48.988;8.450;2023-07-13T15:38:51;2.38;;;0.90;;
21814;SDS011;11069;48.988;8.450;2023-07-13T15:43:52;1.58;;;0.93;;
21814;SDS011;11069;48.988;8.450;2023-07-13T15:46:21;3.05;;;1.00;;
21814;SDS011;11069;48.988;8.450;2023-07-13T15:48:48;1.48;;;0.80;;
21814;SDS011;11069;48.988;8.450;2023-07-13T15:51:24;1.75;;;1.05;;
21814;SDS011;11069;48.988;8.450;2023-07-13T15:53:56;2.60;;;1.20;;
21814;SDS011;11069;48.988;8.450;2023-07-13T15:56:28;1.88;;;0.90;;
21814;SDS011;11069;48.988;8.450;2023-07-13T15:58:55;1.55;;;1.00;;
21814;SDS011;11069;48.988;8.450;2023-07-13T16:01:21;1.65;;;1.15;;
21814;SDS011;11069;48.988;8.450;2023-07-13T16:03:48;1.58;;;0.88;;
21814;SDS011;11069;48.988;8.450;2023-07-13T16:06:18;1.60;;;0.88;;
21814;SDS011;11069;48.988;8.450;2023-07-13T16:08:55;1.10;;;1.00;;
21814;SDS011;11069;48.988;8.450;2023-07-13T16:11:24;2.08;;;1.10;;
21814;SDS011;11069;48.988;8.450;2023-07-13T16:13:52;2.90;;;1.23;;
21814;SDS011;11069;48.988;8.450;2023-07-13T16:16:22;1.55;;;1.00;;
21814;SDS011;11069;48.988;8.450;2023-07-13T16:18:57;1.42;;;1.00;;
21814;SDS011;11069;48.988;8.450;2023-07-13T16:21:24;1.58;;;1.13;;
21814;SDS011;11069;48.988;8.450;2023-07-13T16:23:55;2.28;;;1.10;;
21814;SDS011;11069;48.988;8.450;2023-07-13T16:28:53;1.58;;;1.10;;
21814;SDS011;11069;48.988;8.450;2023-07-13T16:31:25;1.80;;;1.00;;
21814;SDS011;11069;48.988;8.450;2023-07-13T16:33:56;2.97;;;0.88;;